createdAt,value
2019-03-28T00:00:53.504Z,19.73
2019-03-28T00:04:57.099Z,26.70
2019-03-28T00:09:00.723Z,33.35
2019-03-28T00:13:04.703Z,32.70
2019-03-28T00:17:08.703Z,22.53
2019-03-28T00:21:12.364Z,38.85
2019-03-28T00:25:23.431Z,26.48
2019-03-28T00:29:27.021Z,29.52
2019-03-28T00:33:30.603Z,32.03
2019-03-28T00:37:34.217Z,34.53
2019-03-28T00:41:37.784Z,29.15
2019-03-28T00:45:44.419Z,30.25
2019-03-28T00:49:46.640Z,37.93
2019-03-28T00:53:50.229Z,40.35
2019-03-28T00:57:53.805Z,28.27
2019-03-28T01:01:57.393Z,31.10
2019-03-28T01:06:00.989Z,33.10
2019-03-28T01:10:06.046Z,31.07
2019-03-28T01:14:09.636Z,44.97
2019-03-28T01:18:13.229Z,32.03
2019-03-28T01:22:16.959Z,22.02
2019-03-28T01:26:20.539Z,41.92
2019-03-28T01:30:24.148Z,32.53
2019-03-28T01:34:27.735Z,29.63
2019-03-28T01:38:31.317Z,27.98
2019-03-28T01:42:34.898Z,33.83
2019-03-28T01:46:38.485Z,35.48
2019-03-28T01:50:42.161Z,33.53
2019-03-28T01:54:45.769Z,35.63
2019-03-28T01:58:49.351Z,27.20
2019-03-28T02:02:52.946Z,35.50
2019-03-28T02:06:56.535Z,25.70
2019-03-28T02:11:00.124Z,30.85
2019-03-28T02:15:05.253Z,34.45
2019-03-28T02:19:09.294Z,39.23
2019-03-28T02:23:12.835Z,36.90
2019-03-28T02:27:24.072Z,27.15
2019-03-28T02:31:23.110Z,26.50
2019-03-28T02:35:26.696Z,32.83
2019-03-28T02:39:30.283Z,30.57
2019-03-28T02:43:33.978Z,33.33
2019-03-28T02:47:37.545Z,29.35
2019-03-28T02:51:41.131Z,34.65
2019-03-28T02:55:45.069Z,32.56
2019-03-28T02:59:48.664Z,30.20
2019-03-28T03:03:52.248Z,38.70
2019-03-28T03:07:55.835Z,31.33
2019-03-28T03:11:59.421Z,36.30
2019-03-28T03:16:03.059Z,31.93
2019-03-28T03:20:08.069Z,33.05
2019-03-28T03:24:11.662Z,39.43
2019-03-28T03:28:15.272Z,39.27
2019-03-28T03:32:18.899Z,40.95
2019-03-28T03:36:22.477Z,30.92
2019-03-28T03:40:26.101Z,36.80
2019-03-28T03:44:29.693Z,35.43
2019-03-28T03:48:33.275Z,42.93
2019-03-28T03:52:36.942Z,36.48
2019-03-28T03:56:40.560Z,41.05
2019-03-28T04:00:44.136Z,37.05
2019-03-28T04:04:47.989Z,47.17
2019-03-28T04:08:51.649Z,41.85
2019-03-28T04:12:55.235Z,38.65
2019-03-28T04:16:58.859Z,32.93
2019-03-28T04:21:02.444Z,33.67
2019-03-28T04:25:06.097Z,43.52
2019-03-28T04:29:09.736Z,42.43
2019-03-28T04:33:13.336Z,28.77
2019-03-28T04:37:16.909Z,38.13
2019-03-28T04:41:20.501Z,37.80
2019-03-28T04:45:24.084Z,34.90
2019-03-28T04:49:27.673Z,46.58
2019-03-28T04:53:31.252Z,41.92
2019-03-28T04:57:34.832Z,45.85
2019-03-28T05:01:38.417Z,38.67
2019-03-28T05:05:42.083Z,37.67
2019-03-28T05:09:45.656Z,42.58
2019-03-28T05:13:49.247Z,38.88
2019-03-28T05:17:52.848Z,38.88
2019-03-28T05:21:56.617Z,47.10
2019-03-28T05:26:00.219Z,42.73
2019-03-28T05:30:08.515Z,41.33
2019-03-28T05:34:12.072Z,44.65
2019-03-28T05:38:15.672Z,36.80
2019-03-28T05:42:19.258Z,38.70
2019-03-28T05:46:22.855Z,28.50
2019-03-28T05:50:26.446Z,38.20
2019-03-28T05:54:30.058Z,44.77
2019-03-28T05:58:33.721Z,41.03
2019-03-28T06:02:37.289Z,40.08
2019-03-28T06:06:40.969Z,43.63
2019-03-28T06:10:44.547Z,41.15
2019-03-28T06:14:48.136Z,41.15
2019-03-28T06:18:51.748Z,35.33
2019-03-28T06:22:55.331Z,41.67
2019-03-28T06:26:58.932Z,44.60
2019-03-28T06:31:02.512Z,49.20
2019-03-28T06:35:06.436Z,52.00
2019-03-28T06:39:10.084Z,36.70
2019-03-28T06:43:13.696Z,43.70
2019-03-28T06:47:17.292Z,37.65
2019-03-28T06:51:22.554Z,34.45
2019-03-28T06:55:26.097Z,43.47
2019-03-28T06:59:37.339Z,38.90
2019-03-28T07:03:34.928Z,33.77
2019-03-28T07:07:38.507Z,40.33
2019-03-28T07:11:42.116Z,38.05
2019-03-28T07:15:45.687Z,35.15
2019-03-28T07:19:49.378Z,32.28
2019-03-28T07:23:53.321Z,38.17
2019-03-28T07:27:56.989Z,34.38
2019-03-28T07:32:00.572Z,33.33
2019-03-28T07:36:04.168Z,39.95
2019-03-28T07:40:08.097Z,33.20
2019-03-28T07:44:11.681Z,38.53
2019-03-28T07:48:15.332Z,30.77
2019-03-28T07:52:20.232Z,35.65
2019-03-28T07:56:23.911Z,33.27
2019-03-28T08:00:27.495Z,34.65
2019-03-28T08:04:31.078Z,36.17
2019-03-28T08:08:39.011Z,36.83
2019-03-28T08:12:40.170Z,28.37
2019-03-28T08:16:44.169Z,42.83
2019-03-28T08:20:47.730Z,38.55
2019-03-28T08:24:51.316Z,38.98
2019-03-28T08:28:54.896Z,37.90
2019-03-28T08:32:58.485Z,42.00
2019-03-28T08:37:02.736Z,36.48
2019-03-28T08:41:07.260Z,34.47
2019-03-28T08:45:11.077Z,37.67
2019-03-28T08:49:14.669Z,36.90
2019-03-28T08:53:18.252Z,39.80
2019-03-28T08:57:21.852Z,35.23
2019-03-28T09:01:26.354Z,42.93
2019-03-28T09:05:29.961Z,39.92
2019-03-28T09:09:33.556Z,35.45
2019-03-28T09:13:37.144Z,39.40
2019-03-28T09:17:40.729Z,34.25
2019-03-28T09:21:44.316Z,38.17
2019-03-28T09:25:47.925Z,35.17
2019-03-28T09:29:51.577Z,32.38
2019-03-28T09:33:55.173Z,32.65
2019-03-28T09:37:58.762Z,33.15
2019-03-28T09:42:02.414Z,26.60
2019-03-28T09:46:06.087Z,36.77
2019-03-28T09:50:09.821Z,29.87
2019-03-28T09:54:13.412Z,25.70
2019-03-28T09:58:17.003Z,29.80
2019-03-28T10:02:20.587Z,27.77
2019-03-28T10:06:24.214Z,25.55
2019-03-28T10:10:27.795Z,26.10
2019-03-28T10:14:31.390Z,25.60
2019-03-28T10:18:34.979Z,26.70
2019-03-28T10:22:38.562Z,22.90
2019-03-28T10:26:42.164Z,21.82
2019-03-28T10:30:45.885Z,26.83
2019-03-28T10:34:49.471Z,25.08
2019-03-28T10:38:53.137Z,27.48
2019-03-28T10:42:56.789Z,33.98
2019-03-28T10:47:00.384Z,20.37
2019-03-28T10:51:03.973Z,25.57
2019-03-28T10:55:07.705Z,27.27
2019-03-28T10:59:22.638Z,29.00
2019-03-28T11:03:16.536Z,33.90
2019-03-28T11:07:20.195Z,30.57
2019-03-28T11:11:23.789Z,33.85
2019-03-28T11:15:27.447Z,25.80
2019-03-28T11:19:31.040Z,35.50
2019-03-28T11:23:34.623Z,33.65
2019-03-28T11:27:38.223Z,30.70
2019-03-28T11:31:46.853Z,35.48
2019-03-28T11:35:47.036Z,32.60
2019-03-28T11:39:50.627Z,36.80
2019-03-28T11:43:54.484Z,25.68
2019-03-28T11:47:58.067Z,31.70
2019-03-28T11:52:01.657Z,30.95
2019-03-28T11:56:05.240Z,25.50
2019-03-28T12:00:13.000Z,24.20
2019-03-28T12:04:16.599Z,23.37
2019-03-28T12:08:20.182Z,20.03
2019-03-28T12:12:23.771Z,25.90
2019-03-28T12:16:27.366Z,23.90
2019-03-28T12:20:30.948Z,29.75
2019-03-28T12:24:34.541Z,23.25
2019-03-28T12:28:38.274Z,30.13
2019-03-28T12:32:41.924Z,28.50
2019-03-28T12:36:45.590Z,27.45
2019-03-28T12:40:49.187Z,31.05
2019-03-28T12:44:57.305Z,23.87
2019-03-28T12:48:58.239Z,26.73
2019-03-28T12:53:01.784Z,24.77
2019-03-28T12:57:05.497Z,25.37
2019-03-28T13:01:09.092Z,30.40
2019-03-28T13:05:12.817Z,20.92
2019-03-28T13:09:16.473Z,23.32
2019-03-28T13:13:20.061Z,25.32
2019-03-28T13:17:23.643Z,21.27
2019-03-28T13:21:27.235Z,23.57
2019-03-28T13:25:30.820Z,27.20
2019-03-28T13:29:34.627Z,23.45
2019-03-28T13:33:38.185Z,16.00
2019-03-28T13:37:41.769Z,16.42
2019-03-28T13:41:46.014Z,18.62
2019-03-28T13:45:49.967Z,22.15
2019-03-28T13:49:53.761Z,20.85
2019-03-28T13:53:57.377Z,20.85
2019-03-28T13:58:01.208Z,17.12
2019-03-28T14:02:06.901Z,21.87
2019-03-28T14:06:10.108Z,15.90
2019-03-28T14:10:13.797Z,18.65
2019-03-28T14:14:17.408Z,16.03
2019-03-28T14:18:20.992Z,20.08
2019-03-28T14:22:24.608Z,20.02
2019-03-28T14:26:28.196Z,19.12
2019-03-28T14:30:31.780Z,20.40
2019-03-28T14:34:35.397Z,23.27
2019-03-28T14:38:38.974Z,22.90
2019-03-28T14:42:42.564Z,23.35
2019-03-28T14:46:46.144Z,18.00
2019-03-28T14:50:49.873Z,13.35
2019-03-28T14:54:53.513Z,18.70
2019-03-28T14:58:58.586Z,17.02
2019-03-28T15:03:02.332Z,20.50
2019-03-28T15:07:07.441Z,16.42
2019-03-28T15:11:11.204Z,16.33
2019-03-28T15:15:15.066Z,21.25
2019-03-28T15:19:18.644Z,19.73
2019-03-28T15:23:22.255Z,18.35
2019-03-28T15:27:25.840Z,15.78
2019-03-28T15:31:29.425Z,17.93
2019-03-28T15:35:33.021Z,19.85
2019-03-28T15:39:36.612Z,15.60
2019-03-28T15:43:40.205Z,22.82
2019-03-28T15:47:43.897Z,13.95
2019-03-28T15:51:47.473Z,14.60
2019-03-28T15:55:51.076Z,9.80
2019-03-28T15:59:54.755Z,5.17
2019-03-28T16:03:58.344Z,6.65
2019-03-28T16:08:01.928Z,6.33
2019-03-28T16:12:05.507Z,4.78
2019-03-28T16:16:09.096Z,8.03
2019-03-28T16:20:13.242Z,7.85
2019-03-28T16:24:16.822Z,5.67
2019-03-28T16:28:20.472Z,7.90
2019-03-28T16:32:24.064Z,6.23
2019-03-28T16:36:27.650Z,6.22
2019-03-28T16:40:31.289Z,6.65
2019-03-28T16:44:34.809Z,8.43
2019-03-28T16:48:38.397Z,7.10
2019-03-28T16:52:41.971Z,9.55
2019-03-28T16:56:45.708Z,14.43
2019-03-28T17:00:49.291Z,13.35
2019-03-28T17:04:52.872Z,12.35
2019-03-28T17:08:57.396Z,11.93
2019-03-28T17:13:00.980Z,13.33
2019-03-28T17:17:04.656Z,10.58
2019-03-28T17:21:08.318Z,11.73
2019-03-28T17:25:11.975Z,16.27
2019-03-28T17:29:15.548Z,12.55
2019-03-28T17:33:19.278Z,11.50
2019-03-28T17:37:22.863Z,11.55
2019-03-28T17:41:26.448Z,14.03
2019-03-28T17:45:30.102Z,11.15
2019-03-28T17:49:33.699Z,12.33
2019-03-28T17:53:37.273Z,14.50
2019-03-28T17:57:40.875Z,13.15
2019-03-28T18:01:44.472Z,13.72
2019-03-28T18:05:57.850Z,15.03
2019-03-28T18:09:53.288Z,13.53
2019-03-28T18:13:57.467Z,14.13
2019-03-28T18:18:01.279Z,12.98
2019-03-28T18:22:07.847Z,21.35
2019-03-28T18:26:11.431Z,15.03
2019-03-28T18:30:16.113Z,17.02
2019-03-28T18:34:20.102Z,15.53
2019-03-28T18:38:23.735Z,12.23
2019-03-28T18:42:27.807Z,17.98
2019-03-28T18:46:31.352Z,16.65
2019-03-28T18:50:34.949Z,16.23
2019-03-28T18:54:38.673Z,20.75
2019-03-28T18:58:42.263Z,19.42
2019-03-28T19:02:46.385Z,17.15
2019-03-28T19:06:50.163Z,13.85
2019-03-28T19:10:54.067Z,15.08
2019-03-28T19:14:57.974Z,15.58
2019-03-28T19:19:02.092Z,16.35
2019-03-28T19:23:07.419Z,16.27
2019-03-28T19:31:14.551Z,18.90
2019-03-28T19:35:18.589Z,16.05
2019-03-28T19:39:34.197Z,16.02
2019-03-28T19:43:38.874Z,22.32
2019-03-28T19:47:43.068Z,13.33
2019-03-28T19:51:47.744Z,13.80
2019-03-28T19:55:51.656Z,19.70
2019-03-28T19:59:58.452Z,15.25
2019-03-28T20:04:00.675Z,15.27
2019-03-28T20:08:14.921Z,15.75
2019-03-28T20:12:09.795Z,18.03
2019-03-28T20:16:13.647Z,16.02
2019-03-28T20:20:17.558Z,16.95
2019-03-28T20:24:24.233Z,15.05
2019-03-28T20:28:28.021Z,18.42
2019-03-28T20:32:31.924Z,17.92
2019-03-28T20:36:38.437Z,16.67
2019-03-28T20:40:43.394Z,19.42
2019-03-28T20:44:46.889Z,21.47
2019-03-28T20:48:50.759Z,18.87
2019-03-28T20:52:54.588Z,17.30
2019-03-28T20:56:58.254Z,18.65
2019-03-28T21:01:02.158Z,17.62
2019-03-28T21:05:07.578Z,24.80
2019-03-28T21:09:11.185Z,20.80
2019-03-28T21:13:14.764Z,22.98
2019-03-28T21:17:18.361Z,27.42
2019-03-28T21:21:22.829Z,25.45
2019-03-28T21:25:29.401Z,27.87
2019-03-28T21:29:33.948Z,26.63
2019-03-28T21:37:46.410Z,22.42
2019-03-28T21:41:50.032Z,29.65
2019-03-28T21:45:53.641Z,32.15
2019-03-28T21:49:57.332Z,36.95
2019-03-28T21:54:00.914Z,34.33
2019-03-28T21:58:05.014Z,32.05
2019-03-28T22:02:08.857Z,34.00
2019-03-28T22:06:12.464Z,41.65
2019-03-28T22:10:17.054Z,43.02
2019-03-28T22:14:26.116Z,35.00
2019-03-28T22:18:29.764Z,43.60
2019-03-28T22:22:33.350Z,38.85
2019-03-28T22:26:36.952Z,41.92
2019-03-28T22:30:40.560Z,35.65
2019-03-28T22:34:44.153Z,40.12
2019-03-28T22:38:47.756Z,38.42
2019-03-28T22:42:51.321Z,47.00
2019-03-28T22:46:54.928Z,42.95
2019-03-28T22:50:58.535Z,41.10
2019-03-28T22:55:02.152Z,35.70
2019-03-28T22:59:05.734Z,43.47
2019-03-28T23:03:09.383Z,35.97
2019-03-28T23:07:12.992Z,33.28
2019-03-28T23:11:16.601Z,37.38
2019-03-28T23:15:21.968Z,34.98
2019-03-28T23:19:25.436Z,29.70
2019-03-28T23:23:29.024Z,33.10
2019-03-28T23:27:33.026Z,38.98
2019-03-28T23:31:36.637Z,40.33
2019-03-28T23:35:40.272Z,41.08
2019-03-28T23:39:44.630Z,38.40
2019-03-28T23:43:48.210Z,34.05
2019-03-28T23:47:51.801Z,39.83
2019-03-28T23:51:55.409Z,42.85
2019-03-28T23:55:59.167Z,37.65
